5km Foulées de la saint Sylvestre 2019 le 31/12/2019

Recherche par Dossard : par Nom : par Club :

Place Dossard Nom Prenom Cat. Pl. Cat. Temps Club Sexe
1 804 JEAN-ELIE GEORGES ES 1 00:19:55 MAIRIE SPORTIVE M
2 789 CHARTON JULIEN M0 1 00:20:01 CLUB PELEEN M
3 795 ROSALIE LUC SE 1 00:20:38 FOYER RURALE LA DIGUE M
4 756 ROY PASCAL M1 1 00:20:49 GAULOISE M
5 805 LINEL LAURENT SE 2 00:21:09 MAIRIE SPORTIVE M
6 790 LABARDE ROLAND M2 1 00:21:16 CLUB PELEEN M
7 817 SIMON ROMATRIC M2 2 00:21:21 SPRINGART TEXTILE LAFITTE M
8 750 JEANNOT JEAN-ETIENNE M4 1 00:21:34 GOLDEN STAR M
9 729 POMONEL THOMAS JU 1 00:21:50 MADININA BIKERS M
10 822 BLACODON THIERRY M2 3 00:21:54 ASC POLICE M
11 733 LOUIS-MONDESIR YANJIE JU 2 00:21:54 M
12 794 LOUIS LISE LOIC SE 3 00:21:56 FOYER RURALE LA DIGUE M
13 837 TRESFIELD JEAN CHARLES M0 2 00:21:57 SILVER STAR M
14 761 ST-ANGE WAYNE M2 4 00:22:03 TIGER TEAM 972 M
15 738 FONTAINE LIONEL JU 3 00:22:04 ASSAUT SAINT-PIERRE M
16 765 ZACHARIE CHARLES-DENIS M3 1 00:22:08 CLUB COLONIAL M
17 832 BELLEMARE BRUNO M3 2 00:22:10 M
18 732 FRESNEAU REMI M0 3 00:22:13 VAUCLIN ATHLETIC CLUB M
19 830 LEFEVRE HERVE M5 1 00:22:15 COLISERVICE M
20 736 CLOTHO JEAN-DENIS SE 4 00:22:21 ASSAUT SAINT-PIERRE M
21 797 LAROUE ANTHONY JU 4 00:22:28 TIGER TEAM 972 M
22 739 ZUBELY ERIC M3 3 00:22:39 ASSAUT SAINT-PIERRE M
23 829 FRANCOIS EUGENE WESLEY M0 4 00:22:44 ASC POLICE M
24 762 AGASSEAU PHILIPPE SE 5 00:22:53 TIGER TEAM 972 M
25 728 BEAUSOLEIL PATRICE M1 2 00:23:08 ASCO INTER ATLAS M
26 758 MANIERE FLORIAN M0 5 00:23:15 GOLDEN STAR M
27 768 ARADE WILLY M1 3 00:23:19 M
28 385 LAMOTTE YASMINA SE 1 00:23:21 TIGER TEAM 972 F
29 737 RABATHALY FRANTZ M1 4 00:23:32 ASSAUT SAINT-PIERRE M
30 825 CYPRIA EDMOND M5 2 00:23:33 ASC POLICE M
31 718 ROSA-ARSENE GILLES M4 2 00:23:54 GOLDEN STAR M
32 706 ORVILLE LAURENT M0 6 00:23:57 M
33 746 MARGUERITE MARVIN ES 2 00:23:59 VAUCLIN ATHLETIC CLUB M
34 745 JANICK MIREDIN JANICK SE 6 00:24:08 M
35 802 EMELIE JEAN CHARLES M5 3 00:24:14 MAIRIE SPORTIVE M
36 367 LAURENT ASTRID M3 1 00:24:15 F
37 838 BOURGADE DAVID M1 5 00:24:23 SILVER STAR M
38 771 ESARD EDDY M1 6 00:24:32 GOLDEN STAR M
39 776 FABRICIUS MATTHIAS M0 7 00:24:32 M
40 798 MELT WINNER-TEAM M3 4 00:24:38 WINNER-TEAM M
41 833 BRAFINE RONNY M0 8 00:24:40 M
42 751 GERMANY FLORIAN JU 5 00:24:43 LES BAROUDEURS MARTINIQUE M
43 787 ELOIDIN RUFFIN M4 3 00:24:47 M
44 743 FLOBINUS HENRIUS RODOLPHE M3 5 00:24:49 M
45 719 BORGNE YANNICK M0 9 00:24:54 GOLDEN STAR M
46 763 ELIACE JONATHAN CA 1 00:25:08 TIGER TEAM 972 M
47 714 RENEAUME FRANCOIS M3 6 00:25:34 AIGLON DU LAMENTIN M
48 809 MAREM AUGUSTIN M5 4 00:25:38 AMCF M
49 824 BERARD TONY M3 7 00:25:45 ASC POLICE M
50 321 DUCLIEU Geraldine M2 1 00:25:52 GOLDEN STAR F
51 423 EMELIE ROSELINE M0 1 00:25:57 MAIRIE SPORTIVE F
52 330 COUDRAY ALEXANDRINE SE 2 00:25:59 GOLDEN STAR F
53 826 MOURTIALON JULIEN M3 8 00:26:15 ASC POLICE M
54 764 LAMOTTE KIERAN JU 6 00:26:29 TIGER TEAM 972 M
55 773 TIBERNUS GOERGES M4 4 00:26:35 M
56 848 BONIFACE RÉMY M0 10 00:26:38 M
57 839 BASCOU MICKAEL M2 5 00:26:43 LA RENOVATION M
58 792 SEPAS SAM SE 7 00:26:52 M
59 786 JEAN-ÉTIENNE DAVID M0 11 00:26:57 M
60 821 PLATON FRED-JULIEN M3 9 00:26:59 VAUCLIN ATHLETIC CLUB M
61 721 TORRENT MICHEL M6 1 00:27:05 LA RENOVATION M
62 757 CLOTAIL JEAN LUC M3 10 00:27:08 US ROBERT M
63 416 ROMER LOUISIANNE M3 2 00:27:10 CLUB FRANCISCAIN F
64 730 ROSE RAYMOND M4 5 00:27:19 GOLDEN STAR M
65 373 FAGOUR LAURENCE M1 1 00:27:21 GOLDEN STAR F
66 735 VERT-PRE LUCAS SE 8 00:27:22 ASSAUT SAINT-PIERRE M
67 325 PHAM VAN SUU VERONIQUE M4 1 00:27:22 GOLDEN STAR F
68 770 LOSAT JEAN CLAUDE M6 2 00:27:39 M
69 753 DANET YANN JU 7 00:27:44 LES BAROUDEURS MARTINIQUE M
70 803 PULVAL-DADY THIERY M3 11 00:27:52 MAIRIE SPORTIVE M
71 759 PAVADE JOCELYN M3 12 00:27:53 M
72 331 CROTET Mathieu M0 12 00:27:55 GOLDEN STAR M
73 437 SMAILI STEPHANIE M2 2 00:27:56 ATHLETIC CLUB SALEEN F
74 438 DELLY CORINNE M2 3 00:28:00 ATHLETIC CLUB SALEEN F
75 772 LUCE JOSEPH M2 6 00:28:03 AIGLON DU LAMENTIN M
76 747 IVRISSE SAINT-YVES M7 1 00:28:06 RENVATION DE AUGRAIN M
77 812 VELMONT JULIEN M5 5 00:28:09 ASPTT M
78 381 RENCIOT CHRISTELE M1 2 00:28:14 GOLDEN STAR F
79 387 SOLER JOCELYNE M3 3 00:28:17 TIGER TEAM 972 F
80 734 VIRAYIE JEAN M4 6 00:28:19 ASSAUT SAINT-PIERRE M
81 710 CHAPIN DESIRE M6 3 00:28:23 AIGLON / ASRFO M
82 834 GINEAU MAX M5 6 00:28:25 M
83 420 DORE SOPHIA M0 2 00:28:26 MAIRIE SPORTIVE F
84 731 LONDE MAURICE M2 7 00:28:30 GOLDEN STAR M
85 378 ELISABETH KAREN SE 3 00:28:35 GOLDEN STAR F
86 793 CAROUJEL CLAUDE M5 7 00:28:38 M
87 807 RIJO HERVE M2 8 00:28:53 MAIRIE SPORTIVE M
88 375 COBB MARINE SE 4 00:29:00 CSLG DE LA MARTINIQUE F
89 754 POPOVIC THEO JU 8 00:29:02 LES BAROUDEURS MARTINIQUE M
90 836 EMONIDES MICHEL M3 13 00:29:05 TCHIMBE RAID M
91 816 CORLET GUY GEORGES M4 7 00:29:10 CLUB FRANCISCAIN M
92 327 TOUSSAINT TANYA SE 5 00:29:14 GOLDEN STAR F
93 742 RIFFERT GUIBERT M3 14 00:29:20 AM DES COUREURS DE FOND M
94 741 VANITOU ERWAN MI 1 00:29:29 KARATE CLUB M
95 360 JEAN GILLES CELINE M1 3 00:29:34 GOLDEN STAR F
96 424 CINNA MURIEL M3 4 00:29:40 MAIRIE SPORTIVE F
97 783 RIBAC JEAN-RENE M2 9 00:29:45 VAUCLIN ATHLETIC CLUB M
98 769 ROCHE THIBAULT M0 13 00:29:51 GOLDEN STAR M
99 767 VERT PRE LUC M5 8 00:30:10 GAULOISE M
100 831 PERASTE GERARD M5 9 00:30:14 AM DES COUREURS DE FOND M
101 723 DE FRANCIOSI PHILIPPE M4 8 00:30:15 GOLDEN STAR M
102 709 CHARET ERIC M3 15 00:30:21 M
103 785 LABINSKY RODOLPHE M5 10 00:30:24 M
104 713 DUBRAY JEAN-MICHEL M5 11 00:30:29 AIGLON DU LAMENTIN M
105 406 PHAROSE SABRINA M1 4 00:30:36 TCHIMBE RAID F
106 395 LUCAS MANON CA 1 00:30:38 LES SABLES VENDEE TRIATHLON F
107 815 LOUIS-MARIE MARC M2 10 00:30:39 STT M
108 800 VIGILANT LEON M2 11 00:30:40 TCHIMBE RAID M
109 702 BULVER JEAN-CHRISTIAN M3 16 00:30:48 M
110 320 CAPOUL KAREN-ANN M3 5 00:30:48 CLUB MANIKOU ORGANISATIONS F
111 442 PANCALDI Marie Georges M3 6 00:31:10 F
112 717 GIACOMETTI JACQUES M5 12 00:31:20 CLUB MANIKOU ORGANISATION M
113 711 MARRAUD DES GROTTES FABRICE M1 7 00:31:25 AIGLON DU LAMENTIN M
114 309 MARRAUD DES GROTTES MARIE-PASCALE M1 5 00:31:25 F
115 388 RINTO BEATRICE M1 6 00:31:31 TIGER TEAM 972 F
116 410 BEAUDREUIL NADINE M0 3 00:31:41 CGOSH F
117 777 VILLAGEOIS GRATIEN M5 13 00:31:45 M
118 394 PAROT KATHALYN M1 7 00:31:47 F
119 778 BRICE EDDY M2 12 00:31:48 M
120 779 GEKIERE CYRIL M2 13 00:31:57 CLUB MANIKOU ORGANISATIONS M
121 418 CHARLES DONATIEN FLORA M4 2 00:32:10 F
122 748 GUSTO PHILIPPE M3 17 00:32:17 LES BAROUDEURS MARTINIQUE M
123 716 EUGENIE PATRICK M4 9 00:32:18 AIGLON DU LAMENTIN M
124 307 GALEMPOIX STÉPHANIE SE 6 00:32:32 F
125 811 RUBAN JEAN M6 4 00:32:35 ASPTT M
126 784 BIRBA JEAN CHARLES M5 14 00:32:38 M
127 415 JUBENOT MARIE ANDREE M3 7 00:32:38 F
128 724 FILET FRANTZ M3 18 00:32:41 AM DES COUREURS DE FOND M
129 361 LOUISE-PALIX BRIGITTE M3 8 00:32:44 GOLDEN STAR F
130 429 VARISOT JESSICA M2 4 00:32:50 F
131 446 ?Dossard #446 SE 9 00:32:55 M
132 820 MIREDIN JEAN-MARC M3 19 00:33:06 M
133 827 SOLBIAC JEAN M5 15 00:33:17 ASC POLICE M
134 317 MURCIANO LAETITIA M1 8 00:33:19 F
135 705 BLANQUIN DAVID M1 8 00:33:30 M
136 796 MONGIS PAUL-ALAIN M5 16 00:33:36 ASPTT M
137 447 MA Danielle M4 3 00:33:40 GOLDEN STAR F
138 380 LAGRANDCOURT CARLA M2 5 00:33:49 F
139 780 BELROSE ERIC M0 14 00:33:55 M
140 357 SURIC SABRINA M2 6 00:34:04 AM DES COUREURS DE FOND F
141 782 CHERY REMI M4 10 00:34:04 M
142 390 VALIDE SYLVIA M3 9 00:34:09 TIGER TEAM 972 F
143 440 MARIE SAINTE Lucile M3 10 00:34:26 F
144 781 CHANTEUR LEANDRE M4 11 00:34:27 M
145 810 FELICIE FLAVIEN M5 17 00:34:28 M
146 755 GERIDAN GABRIEL M3 20 00:34:30 GOLDEN STAR M
147 365 YOUNES DANIELLE M2 7 00:34:35 F
148 840 BREDAS Bruno M1 9 00:34:36 M
149 744 RENE-AUBIN ROBERT M7 2 00:34:39 M
150 707 PIERRE MITH M4 12 00:34:42 M
151 329 MARGUERITE SANDRA M1 9 00:34:44 GOLDEN STAR F
152 727 HOUDREVILLE GUY M7 3 00:34:44 M
153 740 VANITOU PATRICK M3 21 00:34:49 M
154 749 LOUIS-JOSEPH MICHAEL M2 14 00:34:52 LES BAROUDEURS MARTINIQUE M
155 818 LOUIS-ALEXANDRE ERIC M3 22 00:35:04 M
156 806 AGARANDE Eric M3 23 00:35:06 MAIRIE SPORTIVE M
157 845 LECHERTIER Jacques M1 10 00:35:08 GOLDEN STAR M
158 391 MOUTAMALLE LISE M1 10 00:35:09 F
159 352 TRON DOMINIQUE M4 4 00:35:09 F
160 314 PAPANEAU CATHERINE M5 1 00:35:21 F
161 835 ANELKA FLORENT M5 18 00:35:33 M
162 370 HALBERT BERNADETTE M6 1 00:35:34 ASSO ATHLETIC CLUB DU MARIN F
163 359 MICHEL MARIE-ODILE M6 2 00:35:43 AM DES COUREURS DE FOND F
164 368 DABADIE-DE-LURBE MARIE-NELLY M2 8 00:35:57 SAM HORIZON 2000 F
165 311 KOURY IRINA SE 7 00:35:58 F
166 400 SIDOINE SYLVIA M5 2 00:36:11 F
167 436 LAGIER IVY M2 9 00:36:22 F
168 319 TELCIDE ARMANDE M6 3 00:36:25 AIGLON DU LAMENTIN F
169 386 JEAN-LOUIS TRACY ES 1 00:36:29 TIGER TEAM 972 F
170 304 FRANÇOIS LUBIN NICOLE M4 5 00:36:34 F
171 355 MASSEE RACHEL M2 10 00:36:34 GOLDEN STAR F
172 726 MARIE SAINTE MARCEL M4 13 00:36:37 LE GALION M
173 701 PRUVOST EWAN CA 2 00:36:48 M
174 326 MONTABORD PAOLA M2 11 00:36:49 GOLDEN STAR F
175 722 TOUCHAIN ERWAN M0 15 00:36:57 TCHIMBE RAID M
176 364 SAINT PIERRE GENEVIÈVE M3 11 00:37:07 F
177 362 CATHERINE ELYANE M3 12 00:37:11 F
178 376 NERO DELPHINE CHRISTELLE M0 4 00:37:19 F
179 444 DULYSE Sonia M5 3 00:37:19 GOLDEN STAR F
180 353 ROLIN ROLIN M3 13 00:37:39 F
181 412 LANDRY LUCETTE ANDREE M4 6 00:37:43 TCHIMBE RAID/TEAM AKTIV/M BIKERS F
182 439 CLIO LYDIE M2 12 00:37:56 F
183 448 PAIN Colette M5 4 00:37:56 GOLDEN STAR F
184 392 CIRILLE BEATRICE M1 11 00:37:59 LA GAULOISE DE TRINITE F
185 351 MICHEL HENRIETTE M8 1 00:37:59 OMASS F
186 337 PELOPONESE JULIETTE M6 4 00:38:01 OMASS F
187 441 GUION FIRMIN Anik M6 5 00:38:07 F
188 819 VESANES TONY M4 14 00:38:08 M
189 393 MAUD LAGUERRE M2 13 00:38:30 F
190 336 MORETON ROMAINE M6 6 00:39:04 OMASS F
191 372 NINO MARTINE M5 5 00:39:22 F
192 421 SUZANNE ARLETTE M4 7 00:39:25 MAIRIE SPORTIVE F
193 335 MONTHIEUX MARLENE M4 8 00:39:35 OMASS F
194 318 PERCIN NICOLE M4 9 00:39:40 AIGLON DU LAMENTIN F
195 346 DUZEROL ELIANE M6 7 00:39:48 OMASS F
196 396 GREGROIRE CHRISTINE M1 12 00:39:51 F
197 340 SAINT-VAL LILIANE M7 1 00:39:51 OMASS F
198 305 MAGELLAN KATIA M2 14 00:39:54 F
199 308 CANTINOL SANDRA M3 14 00:39:54 F
200 443 DELIN Lydia M2 15 00:39:58 F
201 389 DACLINAT MARIE-CLAUDE M3 15 00:40:08 TIGER TEAM 972 F
202 306 ESTHER DOMINIQUE M3 16 00:40:10 F
203 371 GERMANY HUGUETTE M7 2 00:40:15 F
204 401 DE MAN CAROLINE M1 13 00:40:20 US ROBERT F
205 315 SULTY SIMONE M4 10 00:40:37 F
206 704 BELFAN EDDY FRANCOIS M2 15 00:40:50 M
207 322 ELISEE JOCELYNE M4 11 00:40:51 GOLDEN STAR F
208 397 REINE SANDRINE M2 16 00:41:20 AIGLON DU LAMENTIN F
209 808 AMBROISINE BENJAMIN M10 1 00:41:33 M
210 312 SOUDIN ROSE M3 17 00:41:38 F
211 813 LACAVALERIE YVON M7 4 00:42:01 AMCF M
212 814 LACAVALERIE CEDRIC M0 16 00:42:01 ASSAUT SAINT-PIERRE M
213 313 DELAMARE VIRGINIE M1 14 00:42:14 F
214 316 SULTY SYLVIE M4 12 00:42:31 F
215 435 BRIAND MIREILLE M4 13 00:42:48 US ROBERT F
216 414 ETIENNE TAINA M2 17 00:42:48 F
217 328 TOUSSAINT NADIA SE 8 00:42:49 GOLDEN STAR F
218 799 LAPU ALAIN M5 19 00:42:54 M
219 419 GROSSMANN PASCALE M4 14 00:43:11 F
220 399 SMITH CHRISTELLE SE 9 00:43:11 F
221 413 MELT BLANDINE M2 18 00:43:23 F
222 345 CRUCHET RENEE M6 8 00:44:10 OMASS F
223 434 PIMPY ALINE M2 19 00:44:25 F
224 363 VENANCE PEGGY M1 15 00:44:32 F
225 379 MARTOT MARYLINE M4 15 00:44:41 US ROBERT F
226 369 MAURICE YANIS M3 18 00:44:45 F
227 411 OLINY ODILE M2 20 00:45:13 LA CIGOGNE MARTINIQUE F
228 350 LAMASINE VALERIE M0 5 00:45:16 OMASS F
229 341 TARAUD JOSIANE M7 3 00:45:18 OMASS F
230 430 VILLAGEOIS PATRICIA M4 16 00:45:20 MAIRIE SPORTIVE F
231 428 MARLIN-SOLBIAC PATRICIA M4 17 00:45:27 F
232 431 BONHEUR AUDREY M1 16 00:45:34 F
233 725 DEFFIT JULIEN M9 1 00:45:59 OMASS M
234 432 EDMOND FRANCETTE M5 6 00:46:31 F
235 425 LEROUX MYRIAM M1 17 00:46:35 VAUCLIN ATHLETIC CLUB F
236 347 FARRAUDIERE CHRYSLAINE M6 9 00:46:35 OMASS F
237 374 LUCIE LUCIE M4 18 00:46:47 F
238 417 JOACHIM MARIE GEOFFROY M3 19 00:47:20 TEAM AKTV GIRLS F
239 788 CINNA MAX M2 16 00:47:57 M
240 427 LAGRAND LINDA M2 21 00:48:04 F
241 301 MITH SONIA M3 20 00:48:56 F
242 344 CRAMER PAULETTE M7 4 00:49:06 OMASS F
243 354 MACKO LIVIA M0 6 00:49:18 F
244 310 CHARET GUYLENE M3 21 00:49:24 F
245 349 JANNAS JULIE M7 5 00:49:37 OMASS F
246 342 DEFFIT CHRISTIANE M8 2 00:49:38 OMASS F
247 339 SAMOT PAULE M9 1 00:50:16 OMASS F
248 366 EUTIONNAT LOUISE M3 22 00:50:25 LA GAULOISE F
249 398 UDINO LINE M3 23 00:51:41 US ROBERT F
250 828 DUPELIN GUILLAUME M4 15 00:52:08 M
251 433 LAMARTINIERE YOLANDE M7 6 00:52:20 ASC POLICE F
252 405 NOEL MARTINIE M3 24 00:52:22 F
253 338 RODRIGUE ELIANE M7 7 00:52:39 OMASS F
254 343 BELLIARD JACQUELINE M6 10 00:53:02 OMASS F
255 403 BATIZA FRANCILE M0 7 00:54:15 F
256 158 ?Dossard #158 SE 10 00:54:32 M
257 303 MINATI MARIE M1 18 00:54:33 F
258 302 BINET KATHLEEN SE 10 00:54:34 F
259 402 DALBINOE MADELEINE M4 19 00:57:27 F
260 334 MANUEL ELISE M8 3 00:59:21 OMASS F
261 383 MARTIN SUZY M5 7 00:59:26 F
262 404 BROLLET JOSETTE M3 25 01:00:12 F
263 348 GALIM CAPRON SIMONE M7 8 01:04:25 OMASS F